Terminal Aerodrome Forecast
Issued by NWS Wilmington, OH

Home | Current Version | Previous Version | Text Only | Print | Product List | Glossary On
Versions: 1 2 3 4 5 6 7 8 9 10 11 12 13 14 15 16 17 18 19
000
FTUS41 KILN 281200 AAA
TAFILN
TAF AMD
KILN 281259Z 2813/2912 03010KT P6SM BKN022
      TEMPO 2813/2814 -SHSN
     FM281400 01010KT P6SM SCT040
     FM281800 34010KT P6SM FEW040
     FM290000 VRB03KT P6SM SKC=

USA.gov is the U.S. government's official web portal to all federal, state and local government web resources and services.